Time;durP1;ratioP1;P1;durP2;ratioP2;P2;SDS_P1;SDS_P2;PMS_P1;PMS_P2;Temp;Humidity;BMP_temperature;BMP_pressure;BME280_temperature;BME280_humidity;BME280_pressure;Samples;Min_cycle;Max_cycle;Signal;HPM_P1;HPM_P2
2023/01/10 00:01:20;;;;;;;;;;;17.90;88.30;;;;;;5096064;28;19946;-51
2023/01/10 00:03:46;;;;;;;;;;;17.90;88.30;;;;;;5096068;28;20006;-55
2023/01/10 00:06:11;;;;;;;;;;;17.90;88.40;;;;;;5077863;28;19904;-51
2023/01/10 00:08:37;;;;;;;;;;;17.90;88.40;;;;;;5095954;28;20284;-56
2023/01/10 00:13:22;;;;;;;;;;;17.90;88.40;;;;;;5095584;28;20270;-57
2023/01/10 00:13:47;;;;;;;;;;;17.90;88.50;;;;;;5095456;28;19911;-52
2023/01/10 00:16:13;;;;;;;;;;;17.90;88.60;;;;;;5095794;28;19904;-55
2023/01/10 00:18:38;;;;;;;;;;;17.90;88.60;;;;;;5095703;28;19910;-56
2023/01/10 00:21:08;;;;;;;;;;;17.90;88.70;;;;;;5077418;28;20015;-54
2023/01/10 00:23:34;;;;;;;;;;;17.80;88.70;;;;;;5095592;28;19909;-52
2023/01/10 00:26:00;;;;;;;;;;;17.90;88.70;;;;;;5096029;28;19984;-52
2023/01/10 00:28:25;;;;;;;;;;;17.80;88.70;;;;;;5095584;28;20270;-55
2023/01/10 00:30:59;;;;;;;;;;;17.90;88.70;;;;;;5095447;28;19904;-54
2023/01/10 00:33:25;;;;;;;;;;;17.90;88.70;;;;;;5095419;28;19912;-52
2023/01/10 00:35:51;;;;;;;;;;;17.90;88.80;;;;;;5095343;28;19939;-56
2023/01/10 00:38:16;;;;;;;;;;;17.90;88.80;;;;;;5095721;28;19904;-56
2023/01/10 00:40:42;;;;;;;;;;;17.90;88.70;;;;;;5095657;28;20337;-54
2023/01/10 00:45:52;;;;;;;;;;;17.90;88.60;;;;;;5095307;28;19970;-56
2023/01/10 00:48:18;;;;;;;;;;;17.90;88.60;;;;;;5095145;28;20345;-54
2023/01/10 00:50:45;;;;;;;;;;;17.90;88.60;;;;;;5095324;28;20342;-54
2023/01/10 00:53:10;;;;;;;;;;;17.90;88.50;;;;;;5095443;28;19989;-57
2023/01/10 00:55:36;;;;;;;;;;;17.90;88.50;;;;;;5095122;28;20296;-57
2023/01/10 00:58:01;;;;;;;;;;;17.90;88.50;;;;;;5095300;28;19954;-56
2023/01/10 01:00:27;;;;;;;;;;;18.00;88.50;;;;;;5095037;28;19904;-53
2023/01/10 01:02:53;;;;;;;;;;;17.90;88.50;;;;;;5094619;28;19908;-55
2023/01/10 01:05:19;;;;;;;;;;;17.90;88.50;;;;;;5094944;28;19913;-53
2023/01/10 01:07:48;;;;;;;;;;;17.90;88.60;;;;;;5094918;28;19910;-55
2023/01/10 01:10:25;;;;;;;;;;;17.90;88.60;;;;;;5094499;28;19904;-55
2023/01/10 01:12:51;;;;;;;;;;;17.90;88.70;;;;;;5094841;28;19911;-55
2023/01/10 01:15:16;;;;;;;;;;;17.90;88.80;;;;;;5094517;28;19904;-54
2023/01/10 01:17:42;;;;;;;;;;;17.90;88.90;;;;;;5094698;28;19904;-55
2023/01/10 01:20:08;;;;;;;;;;;17.80;88.90;;;;;;5076581;28;19911;-55
2023/01/10 01:22:33;;;;;;;;;;;17.90;89.00;;;;;;5094231;28;19959;-55
2023/01/10 01:24:59;;;;;;;;;;;17.80;89.10;;;;;;5094576;28;19908;-57
2023/01/10 01:27:24;;;;;;;;;;;17.80;89.10;;;;;;5094544;28;20291;-56
2023/01/10 01:29:50;;;;;;;;;;;17.80;89.10;;;;;;5094558;28;19950;-55
2023/01/10 01:32:15;;;;;;;;;;;17.80;89.10;;;;;;5094543;28;20362;-53
2023/01/10 01:34:40;;;;;;;;;;;17.90;89.20;;;;;;5093646;28;19950;-52
2023/01/10 01:37:06;;;;;;;;;;;17.90;89.10;;;;;;5094557;28;19923;-55
2023/01/10 01:39:31;;;;;;;;;;;17.90;89.10;;;;;;5094396;28;19910;-56
2023/01/10 01:41:57;;;;;;;;;;;17.90;89.20;;;;;;5093946;28;20342;-56
2023/01/10 01:44:23;;;;;;;;;;;17.90;89.10;;;;;;5094005;28;19908;-57
2023/01/10 01:46:59;;;;;;;;;;;17.90;89.00;;;;;;5094314;28;19926;-53
2023/01/10 01:49:25;;;;;;;;;;;18.00;88.90;;;;;;5094700;28;19904;-56
2023/01/10 01:51:52;;;;;;;;;;;18.00;88.80;;;;;;5094279;28;19904;-56
2023/01/10 01:54:18;;;;;;;;;;;18.00;88.70;;;;;;5093981;28;19904;-56
2023/01/10 01:56:46;;;;;;;;;;;18.10;88.50;;;;;;5094249;28;19910;-55
2023/01/10 01:59:13;;;;;;;;;;;18.10;88.50;;;;;;5094230;28;20010;-56
2023/01/10 02:01:40;;;;;;;;;;;18.00;88.50;;;;;;5075967;28;20371;-56
2023/01/10 02:04:26;;;;;;;;;;;18.00;88.50;;;;;;5076057;28;19935;-54
2023/01/10 02:06:53;;;;;;;;;;;18.00;88.50;;;;;;5093985;28;19911;-56
2023/01/10 02:09:28;;;;;;;;;;;18.00;88.50;;;;;;5094154;28;19973;-55
2023/01/10 02:11:54;;;;;;;;;;;18.00;88.70;;;;;;5093895;28;19904;-54
2023/01/10 02:14:22;;;;;;;;;;;17.90;88.70;;;;;;5094071;28;20002;-53
2023/01/10 02:16:47;;;;;;;;;;;17.90;88.70;;;;;;5094025;28;19905;-54
2023/01/10 02:19:23;;;;;;;;;;;17.90;88.70;;;;;;5094028;28;19927;-52
2023/01/10 02:22:11;;;;;;;;;;;17.90;88.70;;;;;;5075973;28;19908;-53
2023/01/10 02:24:59;;;;;;;;;;;17.90;88.80;;;;;;5092627;28;19908;-53
2023/01/10 02:27:26;;;;;;;;;;;17.90;88.90;;;;;;5073752;28;20290;-54
2023/01/10 02:30:04;;;;;;;;;;;17.90;88.80;;;;;;5093732;28;19912;-56
2023/01/10 02:32:32;;;;;;;;;;;17.90;88.90;;;;;;5080609;28;19931;-55
2023/01/10 02:35:21;;;;;;;;;;;17.90;88.90;;;;;;5093531;28;19912;-54
2023/01/10 02:37:58;;;;;;;;;;;18.00;88.90;;;;;;5055450;28;19943;-54
2023/01/10 02:40:30;;;;;;;;;;;18.00;88.80;;;;;;5093565;28;19912;-53
2023/01/10 02:42:56;;;;;;;;;;;18.00;88.80;;;;;;5104772;28;19922;-55
2023/01/10 02:45:28;;;;;;;;;;;18.00;88.70;;;;;;5094821;28;19951;-56
2023/01/10 02:47:54;;;;;;;;;;;18.00;88.70;;;;;;5102570;28;19908;-55
2023/01/10 02:50:20;;;;;;;;;;;18.10;88.70;;;;;;5117849;28;19907;-52
2023/01/10 02:52:45;;;;;;;;;;;18.10;88.70;;;;;;5117506;28;20002;-55
2023/01/10 02:55:11;;;;;;;;;;;18.10;88.70;;;;;;5117490;28;19908;-53
2023/01/10 02:57:39;;;;;;;;;;;18.00;88.70;;;;;;5105525;28;19908;-52
2023/01/10 03:00:14;;;;;;;;;;;18.00;88.80;;;;;;5103959;28;20018;-56
2023/01/10 03:02:48;;;;;;;;;;;18.00;88.80;;;;;;5099165;28;20311;-55
2023/01/10 03:05:13;;;;;;;;;;;17.90;88.80;;;;;;5105057;28;19912;-56
2023/01/10 03:07:44;;;;;;;;;;;17.90;89.00;;;;;;5096811;28;19961;-56
2023/01/10 03:10:36;;;;;;;;;;;17.90;89.00;;;;;;5078873;28;19909;-53
2023/01/10 03:13:08;;;;;;;;;;;17.90;89.00;;;;;;5072774;28;19959;-57
2023/01/10 03:15:35;;;;;;;;;;;17.90;89.00;;;;;;5085715;28;19954;-55
2023/01/10 03:18:02;;;;;;;;;;;17.90;89.00;;;;;;5094527;28;19943;-55
2023/01/10 03:20:30;;;;;;;;;;;17.90;88.90;;;;;;5096650;28;20263;-52
2023/01/10 03:22:56;;;;;;;;;;;18.00;88.80;;;;;;5105503;28;19908;-53
2023/01/10 03:25:23;;;;;;;;;;;18.10;88.70;;;;;;5096484;28;19931;-56
2023/01/10 03:27:50;;;;;;;;;;;18.20;88.50;;;;;;5109358;28;20015;-53
2023/01/10 03:30:27;;;;;;;;;;;18.30;88.30;;;;;;5117435;28;19935;-56
2023/01/10 03:32:54;;;;;;;;;;;18.20;88.20;;;;;;5110467;28;19904;-55
2023/01/10 03:35:21;;;;;;;;;;;18.20;88.10;;;;;;5096441;28;19916;-54
2023/01/10 03:37:57;;;;;;;;;;;18.20;88.20;;;;;;5096595;28;19911;-56
2023/01/10 03:40:42;;;;;;;;;;;18.20;88.30;;;;;;5096377;28;20247;-53
2023/01/10 03:45:58;;;;;;;;;;;18.10;88.50;;;;;;5096180;28;19961;-55
2023/01/10 03:48:26;;;;;;;;;;;18.00;88.50;;;;;;5096339;28;19908;-55
2023/01/10 03:50:52;;;;;;;;;;;18.00;88.80;;;;;;5078296;28;19911;-53
2023/01/10 03:53:18;;;;;;;;;;;17.90;88.80;;;;;;5096092;28;20255;-56
2023/01/10 03:55:44;;;;;;;;;;;17.90;88.90;;;;;;5077471;28;19984;-54
2023/01/10 03:58:09;;;;;;;;;;;17.90;89.00;;;;;;5095775;28;19914;-54
2023/01/10 04:00:35;;;;;;;;;;;17.90;89.10;;;;;;5096110;28;19997;-56
2023/01/10 04:03:00;;;;;;;;;;;17.90;89.30;;;;;;5077873;28;19908;-55
2023/01/10 04:05:26;;;;;;;;;;;17.90;89.30;;;;;;5096179;28;19955;-55
2023/01/10 04:07:51;;;;;;;;;;;17.80;89.10;;;;;;5078166;28;19947;-52
2023/01/10 04:10:17;;;;;;;;;;;17.90;89.20;;;;;;5095901;28;19912;-52
2023/01/10 04:12:42;;;;;;;;;;;17.90;89.30;;;;;;5097223;28;19949;-53
2023/01/10 04:15:08;;;;;;;;;;;17.90;89.20;;;;;;5116537;28;19908;-51
2023/01/10 04:17:33;;;;;;;;;;;18.00;89.00;;;;;;5116462;28;19904;-54
2023/01/10 04:19:59;;;;;;;;;;;18.10;88.70;;;;;;5116142;28;19926;-55
2023/01/10 04:22:24;;;;;;;;;;;18.20;88.40;;;;;;5104389;28;19908;-58
2023/01/10 04:24:50;;;;;;;;;;;18.20;84.70;;;;;;5081659;28;20367;-56
2023/01/10 04:27:16;;;;;;;;;;;18.30;87.30;;;;;;5074304;28;19977;-55
2023/01/10 04:29:42;;;;;;;;;;;18.30;87.70;;;;;;5073110;28;19908;-56
2023/01/10 04:32:07;;;;;;;;;;;18.30;87.80;;;;;;5055046;28;19916;-52
2023/01/10 04:34:32;;;;;;;;;;;18.30;87.80;;;;;;5054880;28;20262;-55
2023/01/10 04:36:58;;;;;;;;;;;18.20;88.00;;;;;;5073092;28;19920;-54
2023/01/10 04:39:23;;;;;;;;;;;18.20;88.10;;;;;;5054964;28;19913;-53
2023/01/10 04:41:49;;;;;;;;;;;18.20;88.40;;;;;;5073123;28;19963;-55
2023/01/10 04:44:14;;;;;;;;;;;18.10;88.30;;;;;;5056652;28;19920;-53
2023/01/10 04:46:40;;;;;;;;;;;18.00;88.40;;;;;;5074514;28;19966;-55
2023/01/10 04:49:06;;;;;;;;;;;18.00;88.60;;;;;;5074739;28;20006;-56
2023/01/10 04:51:31;;;;;;;;;;;18.00;88.70;;;;;;5074424;28;19962;-55
2023/01/10 04:53:57;;;;;;;;;;;17.90;88.70;;;;;;5074687;28;20264;-54
2023/01/10 04:56:22;;;;;;;;;;;17.90;88.90;;;;;;5074610;28;19916;-55
2023/01/10 04:58:48;;;;;;;;;;;17.90;88.90;;;;;;5074345;28;19908;-54
2023/01/10 05:01:19;;;;;;;;;;;17.90;89.00;;;;;;5074437;28;19909;-55
2023/01/10 05:03:48;;;;;;;;;;;17.80;89.00;;;;;;5074272;28;20429;-53
2023/01/10 05:06:14;;;;;;;;;;;17.80;89.60;;;;;;5074177;28;20363;-56
2023/01/10 05:08:40;;;;;;;;;;;17.80;89.00;;;;;;5074423;28;19908;-53
2023/01/10 05:11:05;;;;;;;;;;;17.80;89.20;;;;;;5073772;28;19944;-54
2023/01/10 05:13:30;;;;;;;;;;;17.80;89.20;;;;;;5073989;28;19915;-55
2023/01/10 05:15:56;;;;;;;;;;;17.80;89.20;;;;;;5073923;28;19952;-54
2023/01/10 05:18:26;;;;;;;;;;;17.90;89.00;;;;;;5074238;28;19908;-53
2023/01/10 05:20:51;;;;;;;;;;;18.00;88.90;;;;;;5074301;28;19909;-52
2023/01/10 05:23:17;;;;;;;;;;;18.10;88.60;;;;;;5056144;28;19912;-56
2023/01/10 05:25:43;;;;;;;;;;;18.10;88.50;;;;;;5074142;28;20017;-53
2023/01/10 05:28:09;;;;;;;;;;;18.20;88.40;;;;;;5073853;28;19915;-56
2023/01/10 05:30:34;;;;;;;;;;;18.20;88.30;;;;;;5073853;28;19908;-55
2023/01/10 05:33:02;;;;;;;;;;;18.20;88.30;;;;;;5073903;28;19916;-52
2023/01/10 05:35:27;;;;;;;;;;;18.20;88.40;;;;;;5073811;28;19948;-55
2023/01/10 05:37:53;;;;;;;;;;;18.20;88.50;;;;;;5073818;28;19985;-55
2023/01/10 05:40:18;;;;;;;;;;;18.10;88.40;;;;;;5073714;28;19909;-54
2023/01/10 05:42:44;;;;;;;;;;;18.10;88.60;;;;;;5073837;28;19913;-55
2023/01/10 05:45:09;;;;;;;;;;;18.00;88.70;;;;;;5073840;28;20006;-56
2023/01/10 05:47:35;;;;;;;;;;;18.00;88.80;;;;;;5055862;28;19919;-55
2023/01/10 05:50:00;;;;;;;;;;;18.00;88.90;;;;;;5073931;28;20264;-54
2023/01/10 05:52:26;;;;;;;;;;;17.90;89.00;;;;;;5073549;28;20007;-55
2023/01/10 05:54:51;;;;;;;;;;;17.90;89.10;;;;;;5073519;28;19908;-56
2023/01/10 05:57:18;;;;;;;;;;;17.90;89.70;;;;;;5055809;28;19966;-54
2023/01/10 05:59:43;;;;;;;;;;;17.80;89.20;;;;;;5073737;28;19908;-56
2023/01/10 06:02:09;;;;;;;;;;;17.90;89.30;;;;;;5055727;28;19935;-52
2023/01/10 06:04:34;;;;;;;;;;;17.80;89.30;;;;;;5073656;28;20467;-55
2023/01/10 06:07:00;;;;;;;;;;;17.80;89.40;;;;;;5073691;28;19966;-56
2023/01/10 06:09:25;;;;;;;;;;;17.80;89.40;;;;;;5073546;28;19974;-55
2023/01/10 06:11:51;;;;;;;;;;;17.80;89.50;;;;;;5074049;28;20279;-54
2023/01/10 06:14:18;;;;;;;;;;;17.80;89.30;;;;;;5073578;28;19931;-56
2023/01/10 06:16:44;;;;;;;;;;;17.80;89.30;;;;;;5073470;28;19975;-55
2023/01/10 06:19:09;;;;;;;;;;;17.90;89.30;;;;;;5073270;28;19909;-55
2023/01/10 06:21:35;;;;;;;;;;;17.80;89.20;;;;;;5075994;28;19916;-54
2023/01/10 06:24:00;;;;;;;;;;;17.80;89.10;;;;;;5077549;28;19916;-52
2023/01/10 06:26:26;;;;;;;;;;;17.80;89.20;;;;;;5077244;28;19908;-53
2023/01/10 06:28:51;;;;;;;;;;;17.90;89.20;;;;;;5077099;28;19908;-54
2023/01/10 06:31:17;;;;;;;;;;;17.90;89.10;;;;;;5077226;28;20430;-56
2023/01/10 06:33:42;;;;;;;;;;;18.00;89.00;;;;;;5079890;28;19952;-54
2023/01/10 06:36:08;;;;;;;;;;;18.00;88.90;;;;;;5092573;28;19920;-53
2023/01/10 06:38:34;;;;;;;;;;;18.00;88.90;;;;;;5097351;28;20274;-56
2023/01/10 06:41:11;;;;;;;;;;;18.00;88.80;;;;;;5096960;28;19995;-54
2023/01/10 06:43:38;;;;;;;;;;;18.10;88.90;;;;;;5096591;28;19965;-54
2023/01/10 06:46:04;;;;;;;;;;;18.00;88.90;;;;;;5096427;28;19931;-53
2023/01/10 06:48:29;;;;;;;;;;;18.00;88.90;;;;;;5101461;28;19912;-57
2023/01/10 06:50:55;;;;;;;;;;;18.10;89.10;;;;;;5111136;28;19919;-56
2023/01/10 06:53:20;;;;;;;;;;;18.00;87.20;;;;;;5116147;28;19950;-55
2023/01/10 06:55:45;;;;;;;;;;;18.00;86.60;;;;;;5079828;28;19912;-55
2023/01/10 06:58:11;;;;;;;;;;;17.90;85.70;;;;;;5096906;28;19908;-53
2023/01/10 07:00:37;;;;;;;;;;;17.90;87.80;;;;;;5094052;28;19912;-52
2023/01/10 07:03:02;;;;;;;;;;;18.00;89.00;;;;;;5096668;28;20042;-58
2023/01/10 07:05:28;;;;;;;;;;;18.10;88.90;;;;;;5095248;28;20359;-55
2023/01/10 07:07:54;;;;;;;;;;;18.10;88.70;;;;;;5109834;28;19919;-54
2023/01/10 07:10:20;;;;;;;;;;;18.10;89.10;;;;;;5094390;28;19912;-55
2023/01/10 07:12:45;;;;;;;;;;;18.10;89.10;;;;;;5078299;28;19912;-54
2023/01/10 07:15:11;;;;;;;;;;;18.00;89.10;;;;;;5103036;28;19953;-56
2023/01/10 07:17:39;;;;;;;;;;;18.00;87.60;;;;;;5095482;28;19998;-54
2023/01/10 07:20:05;;;;;;;;;;;17.90;88.90;;;;;;5096598;28;19915;-55
2023/01/10 07:22:31;;;;;;;;;;;17.90;89.20;;;;;;5096343;28;20018;-54
2023/01/10 07:24:56;;;;;;;;;;;17.90;89.30;;;;;;5096122;28;19959;-55
2023/01/10 07:27:21;;;;;;;;;;;17.90;89.30;;;;;;5096153;28;19908;-56
2023/01/10 07:29:47;;;;;;;;;;;17.90;89.40;;;;;;5096213;28;20286;-53
2023/01/10 07:32:12;;;;;;;;;;;17.80;89.40;;;;;;5095573;28;19909;-55
2023/01/10 07:34:38;;;;;;;;;;;17.90;89.40;;;;;;5096270;28;19908;-52
2023/01/10 07:37:03;;;;;;;;;;;17.90;89.30;;;;;;5074532;28;20381;-54
2023/01/10 07:39:29;;;;;;;;;;;18.00;89.10;;;;;;5075681;28;19948;-56
2023/01/10 07:41:55;;;;;;;;;;;18.10;88.70;;;;;;5076014;28;19912;-55
2023/01/10 07:44:20;;;;;;;;;;;18.30;88.30;;;;;;5075876;28;19912;-55
2023/01/10 07:46:46;;;;;;;;;;;18.40;87.80;;;;;;5076135;28;20383;-55
2023/01/10 07:49:12;;;;;;;;;;;18.50;87.50;;;;;;5076155;28;19947;-54
2023/01/10 07:51:38;;;;;;;;;;;18.50;87.30;;;;;;5074499;28;19908;-54
2023/01/10 07:54:04;;;;;;;;;;;18.50;87.40;;;;;;5075464;28;19915;-52
2023/01/10 07:56:29;;;;;;;;;;;18.50;87.40;;;;;;5075740;28;20003;-55
2023/01/10 07:58:55;;;;;;;;;;;18.40;87.50;;;;;;5074497;28;19912;-56
2023/01/10 08:01:20;;;;;;;;;;;18.40;87.70;;;;;;5074186;28;20001;-55
2023/01/10 08:03:46;;;;;;;;;;;18.30;87.80;;;;;;5075267;28;20363;-55
2023/01/10 08:06:11;;;;;;;;;;;18.20;88.00;;;;;;5075424;28;20003;-53
2023/01/10 08:08:37;;;;;;;;;;;18.10;88.10;;;;;;5075348;28;19915;-54
2023/01/10 08:11:03;;;;;;;;;;;18.10;88.30;;;;;;5075054;28;19908;-54
2023/01/10 08:13:29;;;;;;;;;;;18.10;88.50;;;;;;5075450;28;20232;-55
2023/01/10 08:15:54;;;;;;;;;;;18.00;88.50;;;;;;5075494;28;19908;-54
2023/01/10 08:18:20;;;;;;;;;;;17.90;88.60;;;;;;5074102;28;20300;-55
2023/01/10 08:20:47;;;;;;;;;;;17.90;88.80;;;;;;5075306;28;19913;-55
2023/01/10 08:23:13;;;;;;;;;;;17.90;88.90;;;;;;5075137;28;19923;-55
2023/01/10 08:25:39;;;;;;;;;;;17.90;89.00;;;;;;5075127;28;20271;-54
2023/01/10 08:28:04;;;;;;;;;;;17.80;89.00;;;;;;5075086;28;20271;-54
2023/01/10 08:30:30;;;;;;;;;;;17.80;89.00;;;;;;5075177;28;19909;-54
2023/01/10 08:32:55;;;;;;;;;;;17.90;89.00;;;;;;5074726;28;19919;-53
2023/01/10 08:35:21;;;;;;;;;;;17.90;88.90;;;;;;5078973;28;20310;-52
2023/01/10 08:37:46;;;;;;;;;;;18.00;88.70;;;;;;5094919;28;19955;-50
2023/01/10 08:40:12;;;;;;;;;;;18.10;88.50;;;;;;5095137;28;19915;-54
2023/01/10 08:42:37;;;;;;;;;;;18.20;88.20;;;;;;5095254;28;20263;-56
2023/01/10 08:45:03;;;;;;;;;;;18.30;87.90;;;;;;5076013;28;20389;-50
2023/01/10 08:47:29;;;;;;;;;;;18.30;87.70;;;;;;5094953;28;20263;-53
2023/01/10 08:49:54;;;;;;;;;;;18.40;87.60;;;;;;5094950;28;19912;-50
2023/01/10 08:52:19;;;;;;;;;;;18.30;87.50;;;;;;5076757;28;19914;-53
2023/01/10 08:54:45;;;;;;;;;;;18.30;87.50;;;;;;5094987;28;19912;-55
2023/01/10 08:57:10;;;;;;;;;;;18.30;87.60;;;;;;5094655;28;19908;-53
2023/01/10 08:59:36;;;;;;;;;;;18.20;87.60;;;;;;5076691;28;20394;-53
2023/01/10 09:02:03;;;;;;;;;;;18.20;87.80;;;;;;5094759;28;20271;-50
2023/01/10 09:04:29;;;;;;;;;;;18.10;87.90;;;;;;5076657;28;19913;-53
2023/01/10 09:06:55;;;;;;;;;;;18.10;88.00;;;;;;5094401;28;19915;-55
2023/01/10 09:09:20;;;;;;;;;;;18.00;88.10;;;;;;5094438;28;19963;-53
2023/01/10 09:11:46;;;;;;;;;;;18.00;88.20;;;;;;5094612;28;19961;-53
2023/01/10 09:14:11;;;;;;;;;;;18.00;88.40;;;;;;5094481;28;19930;-52
2023/01/10 09:16:37;;;;;;;;;;;17.90;88.40;;;;;;5094852;28;19908;-55
2023/01/10 09:19:02;;;;;;;;;;;17.90;88.40;;;;;;5094230;28;19961;-54
2023/01/10 09:21:28;;;;;;;;;;;17.90;88.60;;;;;;5094491;28;19916;-54
2023/01/10 09:23:53;;;;;;;;;;;17.90;88.50;;;;;;5094264;28;19912;-53
2023/01/10 09:26:19;;;;;;;;;;;17.90;88.50;;;;;;5094454;28;19973;-54
2023/01/10 09:28:44;;;;;;;;;;;17.90;88.30;;;;;;5094478;28;19915;-55
2023/01/10 09:31:10;;;;;;;;;;;18.00;88.30;;;;;;5094389;28;19933;-53
2023/01/10 09:33:36;;;;;;;;;;;18.00;88.20;;;;;;5094325;28;19920;-53
2023/01/10 09:36:02;;;;;;;;;;;18.00;88.20;;;;;;5093870;28;20286;-53
2023/01/10 09:38:27;;;;;;;;;;;18.00;88.10;;;;;;5076339;28;20369;-52
2023/01/10 09:41:02;;;;;;;;;;;18.00;88.10;;;;;;5093994;28;20377;-55
2023/01/10 09:43:27;;;;;;;;;;;18.00;88.10;;;;;;5093901;28;19982;-53
2023/01/10 09:45:53;;;;;;;;;;;18.00;88.10;;;;;;5093680;28;20000;-55
2023/01/10 09:48:23;;;;;;;;;;;18.00;88.10;;;;;;5094060;28;20002;-56
2023/01/10 09:51:09;;;;;;;;;;;18.00;88.10;;;;;;5094190;28;19962;-54
2023/01/10 09:53:36;;;;;;;;;;;18.00;88.10;;;;;;5093994;28;19958;-54
2023/01/10 09:56:03;;;;;;;;;;;18.10;88.00;;;;;;5093517;28;20003;-52
2023/01/10 09:58:30;;;;;;;;;;;18.20;88.00;;;;;;5076036;28;20373;-55
2023/01/10 10:00:57;;;;;;;;;;;18.20;87.80;;;;;;5093931;28;19920;-54
2023/01/10 10:03:30;;;;;;;;;;;18.30;87.60;;;;;;5093841;28;19912;-55
2023/01/10 10:05:56;;;;;;;;;;;18.30;87.50;;;;;;5093740;28;20329;-52
2023/01/10 10:08:22;;;;;;;;;;;18.30;87.50;;;;;;5093680;28;19912;-53
2023/01/10 10:11:06;;;;;;;;;;;18.30;87.50;;;;;;5093967;28;19908;-52
2023/01/10 10:13:43;;;;;;;;;;;18.30;87.60;;;;;;5093825;28;19994;-55
2023/01/10 10:16:15;;;;;;;;;;;18.30;87.60;;;;;;5093488;28;20267;-55
2023/01/10 10:18:48;;;;;;;;;;;18.20;87.70;;;;;;5093655;28;19912;-54
2023/01/10 10:21:14;;;;;;;;;;;18.10;87.80;;;;;;5093443;28;19920;-55
2023/01/10 10:23:45;;;;;;;;;;;18.10;88.00;;;;;;5094089;28;19912;-53
2023/01/10 10:26:13;;;;;;;;;;;18.00;88.00;;;;;;5093626;28;19908;-54
2023/01/10 10:28:39;;;;;;;;;;;18.00;88.20;;;;;;5093236;28;19962;-51
2023/01/10 10:31:11;;;;;;;;;;;17.90;88.30;;;;;;5093558;28;19908;-55
2023/01/10 10:33:55;;;;;;;;;;;17.90;88.30;;;;;;5093386;28;19909;-53
2023/01/10 10:36:23;;;;;;;;;;;17.90;88.40;;;;;;5093514;28;19924;-55
2023/01/10 10:38:50;;;;;;;;;;;17.80;88.50;;;;;;5093445;28;19909;-53
2023/01/10 10:41:20;;;;;;;;;;;17.80;88.60;;;;;;5093381;28;19912;-53
2023/01/10 10:43:46;;;;;;;;;;;17.80;88.70;;;;;;5093487;28;19916;-52
2023/01/10 10:46:13;;;;;;;;;;;17.80;88.60;;;;;;5093330;28;19908;-51
2023/01/10 10:48:41;;;;;;;;;;;17.80;88.70;;;;;;5093101;28;20398;-52
2023/01/10 10:51:10;;;;;;;;;;;17.80;88.50;;;;;;5093309;28;20307;-54
2023/01/10 10:53:36;;;;;;;;;;;17.90;88.50;;;;;;5093479;28;19918;-52
2023/01/10 10:56:03;;;;;;;;;;;17.90;88.30;;;;;;5093460;28;19908;-54
2023/01/10 10:58:31;;;;;;;;;;;18.10;88.00;;;;;;5093303;28;19908;-56
2023/01/10 11:00:59;;;;;;;;;;;18.30;87.60;;;;;;5093149;28;20351;-55
2023/01/10 11:03:31;;;;;;;;;;;18.50;87.10;;;;;;5093274;28;20112;-55
2023/01/10 11:05:59;;;;;;;;;;;18.60;86.70;;;;;;5093392;28;19912;-54
2023/01/10 11:08:25;;;;;;;;;;;18.60;86.50;;;;;;5095190;28;20007;-55
2023/01/10 11:10:55;;;;;;;;;;;18.60;86.50;;;;;;5096902;28;19965;-54
2023/01/10 11:13:39;;;;;;;;;;;18.50;86.50;;;;;;5096893;28;19915;-52
2023/01/10 11:16:05;;;;;;;;;;;18.50;86.60;;;;;;5096848;28;19916;-54
2023/01/10 11:18:31;;;;;;;;;;;18.40;86.80;;;;;;5096524;28;19912;-55
2023/01/10 11:20:59;;;;;;;;;;;18.40;87.00;;;;;;5096441;28;19908;-52
2023/01/10 11:23:34;;;;;;;;;;;18.30;87.00;;;;;;5096366;28;19962;-53
2023/01/10 11:25:59;;;;;;;;;;;18.30;87.30;;;;;;5096621;28;19912;-54
2023/01/10 11:28:28;;;;;;;;;;;18.20;87.40;;;;;;5096195;28;19991;-53
2023/01/10 11:30:54;;;;;;;;;;;18.20;87.50;;;;;;5096256;28;20362;-55
2023/01/10 11:33:25;;;;;;;;;;;18.10;87.60;;;;;;5096876;28;19915;-54
2023/01/10 11:35:59;;;;;;;;;;;18.10;87.70;;;;;;5096104;28;19920;-54
2023/01/10 11:38:28;;;;;;;;;;;18.00;87.90;;;;;;5096424;28;20354;-55
2023/01/10 11:41:01;;;;;;;;;;;18.00;88.00;;;;;;5096281;28;19908;-52
2023/01/10 11:43:29;;;;;;;;;;;17.90;88.10;;;;;;5096154;28;19912;-56
2023/01/10 11:45:56;;;;;;;;;;;17.90;88.20;;;;;;5096293;28;19998;-55
2023/01/10 11:48:23;;;;;;;;;;;17.90;88.30;;;;;;5095994;28;20443;-56
2023/01/10 11:50:50;;;;;;;;;;;17.80;88.30;;;;;;5095821;28;19915;-55
2023/01/10 11:53:31;;;;;;;;;;;17.80;88.40;;;;;;5096166;28;19912;-54
2023/01/10 11:55:56;;;;;;;;;;;17.80;88.40;;;;;;5095756;28;19997;-56
2023/01/10 11:58:22;;;;;;;;;;;17.80;88.40;;;;;;5095569;28;19908;-55
2023/01/10 12:00:48;;;;;;;;;;;17.80;88.40;;;;;;5077803;28;19908;-55
2023/01/10 12:03:19;;;;;;;;;;;17.90;88.20;;;;;;5095792;28;19973;-56
2023/01/10 12:05:49;;;;;;;;;;;18.10;87.70;;;;;;5096100;28;19919;-54
2023/01/10 12:08:35;;;;;;;;;;;18.30;87.10;;;;;;5095716;28;19918;-53
2023/01/10 12:11:05;;;;;;;;;;;18.60;86.50;;;;;;5095664;28;19961;-53
2023/01/10 12:13:46;;;;;;;;;;;18.70;86.00;;;;;;5095636;28;19947;-55
2023/01/10 12:16:15;;;;;;;;;;;18.80;85.60;;;;;;5095552;28;20273;-55
2023/01/10 12:18:40;;;;;;;;;;;18.80;85.50;;;;;;5095259;28;19955;-53
2023/01/10 12:21:07;;;;;;;;;;;18.80;85.60;;;;;;5077365;28;19970;-54
2023/01/10 12:23:35;;;;;;;;;;;18.70;85.70;;;;;;5095079;28;19942;-56
2023/01/10 12:26:01;;;;;;;;;;;18.60;85.80;;;;;;5095653;28;19916;-56
2023/01/10 12:28:28;;;;;;;;;;;18.50;86.10;;;;;;5095268;28;19961;-55
2023/01/10 12:30:56;;;;;;;;;;;18.50;86.40;;;;;;5095514;28;19915;-55
2023/01/10 12:33:24;;;;;;;;;;;18.40;86.60;;;;;;5094995;28;20313;-54
2023/01/10 12:35:53;;;;;;;;;;;18.30;86.70;;;;;;5094905;28;20274;-55
2023/01/10 12:41:07;;;;;;;;;;;18.20;87.00;;;;;;5094956;28;19919;-55
2023/01/10 12:46:24;;;;;;;;;;;18.10;87.30;;;;;;5095147;28;19969;-54
2023/01/10 12:49:12;;;;;;;;;;;18.10;87.50;;;;;;5094927;28;19908;-55
2023/01/10 12:51:38;;;;;;;;;;;18.10;87.60;;;;;;5094379;28;19908;-55
2023/01/10 12:54:11;;;;;;;;;;;18.00;87.70;;;;;;5094659;28;19912;-56
2023/01/10 12:56:37;;;;;;;;;;;18.00;87.70;;;;;;5076923;28;19950;-56
2023/01/10 12:59:03;;;;;;;;;;;17.90;87.70;;;;;;5095149;28;19944;-55
2023/01/10 13:01:34;;;;;;;;;;;18.00;87.60;;;;;;5094604;28;19908;-56
2023/01/10 13:04:05;;;;;;;;;;;18.20;87.30;;;;;;5094821;28;19912;-54
2023/01/10 13:06:31;;;;;;;;;;;18.40;86.90;;;;;;5094341;28;19908;-57
2023/01/10 13:08:58;;;;;;;;;;;18.50;86.40;;;;;;5094531;28;19912;-56
2023/01/10 13:11:27;;;;;;;;;;;18.60;86.10;;;;;;5094660;28;19912;-54
2023/01/10 13:13:55;;;;;;;;;;;18.60;85.90;;;;;;5094644;28;20061;-53
2023/01/10 13:16:34;;;;;;;;;;;18.60;85.90;;;;;;5094514;28;19909;-55
2023/01/10 13:19:02;;;;;;;;;;;18.60;86.00;;;;;;5094212;28;19909;-55
2023/01/10 13:21:28;;;;;;;;;;;18.50;86.10;;;;;;5094145;28;19912;-55
2023/01/10 13:24:17;;;;;;;;;;;18.40;86.20;;;;;;5094676;28;19912;-52
2023/01/10 13:26:53;;;;;;;;;;;18.40;86.50;;;;;;5080710;28;19914;-55
2023/01/10 13:29:23;;;;;;;;;;;18.30;86.60;;;;;;5094355;28;19908;-56
2023/01/10 13:31:55;;;;;;;;;;;18.20;86.80;;;;;;5093985;28;19946;-54
2023/01/10 13:34:24;;;;;;;;;;;18.20;87.00;;;;;;5094366;28;19912;-53
2023/01/10 13:37:16;;;;;;;;;;;18.10;87.10;;;;;;5093689;28;19921;-55
2023/01/10 13:39:47;;;;;;;;;;;18.00;87.30;;;;;;5089025;28;19908;-55
2023/01/10 13:45:12;;;;;;;;;;;17.90;87.60;;;;;;5094153;28;19973;-55
2023/01/10 13:47:45;;;;;;;;;;;17.90;87.60;;;;;;5093964;28;19908;-53
2023/01/10 13:50:22;;;;;;;;;;;17.90;87.80;;;;;;5094059;28;20440;-52
2023/01/10 13:52:48;;;;;;;;;;;17.90;87.80;;;;;;5094230;28;19930;-54
2023/01/10 13:55:19;;;;;;;;;;;17.90;87.80;;;;;;5093693;28;19908;-55
2023/01/10 13:57:49;;;;;;;;;;;17.90;87.70;;;;;;5093857;28;19909;-54
2023/01/10 14:03:37;;;;;;;;;;;18.20;87.30;;;;;;5093477;28;19919;-56
2023/01/10 14:06:11;;;;;;;;;;;18.30;86.80;;;;;;5092443;28;20270;-53
2023/01/10 14:08:37;;;;;;;;;;;18.50;86.30;;;;;;5093557;28;19908;-54
2023/01/10 14:11:10;;;;;;;;;;;18.50;86.10;;;;;;5093893;28;20408;-53
2023/01/10 14:13:36;;;;;;;;;;;18.50;86.00;;;;;;5093554;28;19912;-55
2023/01/10 14:16:02;;;;;;;;;;;18.50;86.00;;;;;;5093585;28;19914;-53
2023/01/10 14:18:37;;;;;;;;;;;18.50;86.20;;;;;;5093625;28;19908;-54
2023/01/10 14:21:04;;;;;;;;;;;18.40;86.20;;;;;;5075608;28;19909;-53
2023/01/10 14:23:40;;;;;;;;;;;18.40;86.40;;;;;;5093729;28;19912;-53
2023/01/10 14:26:08;;;;;;;;;;;18.30;86.50;;;;;;5093784;28;19916;-55
2023/01/10 14:28:34;;;;;;;;;;;18.30;86.70;;;;;;5093290;28;20484;-55
2023/01/10 14:31:14;;;;;;;;;;;18.20;86.90;;;;;;5094041;28;19908;-53
2023/01/10 14:33:41;;;;;;;;;;;18.20;87.00;;;;;;5093315;28;19916;-53
2023/01/10 14:36:19;;;;;;;;;;;18.10;87.10;;;;;;5093675;28;19927;-54
2023/01/10 14:38:45;;;;;;;;;;;18.00;87.30;;;;;;5093689;28;20377;-55